6S0

Big Timber Airport

Big Timber, Montana, USA
METAR K6S0 210915Z AUTO 00000KT 10SM FEW004 BKN055 OVC065 M03/M03 A2957 RMK A01
Observed Flight Rules
Jan-21 @ 09:15 UTC (35 minutes ago) Visual Flight Rules
Visibility Clouds
10 miles
  • Few at 400' AGL
  • Broken at 5,500' AGL
  • Overcast at 6,500' AGL
Temperatures Readings
Current -3°C / 27°F
Dewpoint -3°C / 27°F
Humidity 100%
Altimeter 29.57" Hg
Pressure 1001.32 hPa
Elevation 1363
METAR K6S0 210915Z AUTO 00000KT 10SM FEW004 BKN055 OVC065 M03/M03 A2957 RMK A01
Observed Flight Rules
Jan-21 @ 09:15 UTC
(35 minutes ago)
VFR
Clouds
  • Few at 400' AGL
  • Broken at 5,500' AGL
  • Overcast at 6,500' AGL
Temperature Dewpoint
-3°C / 27°F -3°C / 27°F
Humidity Altimeter Pressure
100% 29.57" Hg 1001.32 hPa